Time;durP1;ratioP1;P1;durP2;ratioP2;P2;SDS_P1;SDS_P2;PMS_P1;PMS_P2;Temp;Humidity;BMP_temperature;BMP_pressure;BME280_temperature;BME280_humidity;BME280_pressure;Samples;Min_cycle;Max_cycle;Signal;HPM_P1;HPM_P2
2021/04/24 00:00:29;;;;;;;6.78;5.18;;;10.40;99.90;;;;;;5029591;28;20450;-78
2021/04/24 00:02:55;;;;;;;7.63;5.03;;;10.40;99.90;;;;;;5025041;28;20037;-79
2021/04/24 00:05:33;;;;;;;6.70;5.15;;;10.30;99.90;;;;;;5027773;28;20037;-76
2021/04/24 00:08:00;;;;;;;;;;;10.30;99.90;;;;;;5029886;28;20668;-77
2021/04/24 00:10:26;;;;;;;10.35;5.40;;;10.30;99.90;;;;;;5030245;28;19905;-78
2021/04/24 00:12:52;;;;;;;11.38;5.28;;;10.30;99.90;;;;;;5031085;28;20120;-78
2021/04/24 00:15:19;;;;;;;7.05;4.47;;;10.30;99.90;;;;;;5035287;28;20120;-78
2021/04/24 00:17:44;;;;;;;8.70;5.22;;;10.40;99.90;;;;;;5032565;28;20052;-78
2021/04/24 00:20:14;;;;;;;8.15;4.68;;;10.30;99.90;;;;;;5033714;28;20022;-77
2021/04/24 00:22:41;;;;;;;6.03;4.60;;;10.40;99.90;;;;;;5033126;28;20022;-77
2021/04/24 00:25:07;;;;;;;6.40;4.60;;;10.40;99.90;;;;;;5033931;28;20128;-78
2021/04/24 00:27:33;;;;;;;5.63;4.00;;;10.50;99.90;;;;;;5033526;28;20079;-79
2021/04/24 00:29:58;;;;;;;10.20;4.70;;;10.70;99.90;;;;;;5033957;28;20057;-78
2021/04/24 00:32:24;;;;;;;6.63;4.47;;;10.70;99.90;;;;;;5033095;28;20467;-78
2021/04/24 00:34:51;;;;;;;5.75;3.65;;;10.60;99.90;;;;;;5033608;28;20029;-79
2021/04/24 00:37:16;;;;;;;5.22;3.88;;;10.70;99.90;;;;;;5033546;28;20108;-79
2021/04/24 00:39:42;;;;;;;8.68;4.88;;;10.60;99.90;;;;;;5033603;28;20112;-79
2021/04/24 00:42:08;;;;;;;5.10;3.72;;;10.60;99.90;;;;;;5047978;28;20042;-78
2021/04/24 00:44:42;;;;;;;7.68;4.07;;;10.60;99.90;;;;;;5033201;28;20091;-79
2021/04/24 00:47:08;;;;;;;10.45;4.70;;;10.60;99.90;;;;;;5033123;28;20037;-79
2021/04/24 00:49:36;;;;;;;5.30;3.58;;;10.60;99.90;;;;;;5033448;28;20071;-79
2021/04/24 00:52:02;;;;;;;9.85;4.15;;;10.60;99.90;;;;;;5025677;28;20026;-79
2021/04/24 00:54:28;;;;;;;7.43;4.15;;;10.50;99.90;;;;;;5033361;28;20510;-79
2021/04/24 00:56:54;;;;;;;8.48;4.30;;;10.40;99.90;;;;;;5032965;28;20163;-79
2021/04/24 00:59:19;;;;;;;7.15;4.00;;;10.40;99.90;;;;;;5033732;28;20052;-79
2021/04/24 01:01:45;;;;;;;6.60;3.83;;;10.40;99.90;;;;;;5032387;28;20496;-79
2021/04/24 01:04:10;;;;;;;7.20;4.68;;;10.30;99.90;;;;;;5033187;28;20009;-79
2021/04/24 01:06:36;;;;;;;6.20;3.67;;;10.30;99.90;;;;;;5048512;28;20080;-80
2021/04/24 01:09:05;;;;;;;9.40;4.35;;;10.40;99.90;;;;;;5042342;28;20232;-79
2021/04/24 01:11:31;;;;;;;6.53;3.80;;;10.40;99.90;;;;;;5044112;28;20034;-79
2021/04/24 01:13:57;;;;;;;4.75;3.83;;;10.40;99.90;;;;;;5033184;28;20060;-80
2021/04/24 01:16:23;;;;;;;7.75;4.03;;;10.40;99.90;;;;;;5032485;28;20029;-80
2021/04/24 01:18:48;;;;;;;6.53;3.75;;;10.50;99.90;;;;;;5032934;28;20096;-79
2021/04/24 01:21:17;;;;;;;11.45;3.80;;;10.50;99.90;;;;;;5031410;28;20021;-79
2021/04/24 01:23:44;;;;;;;6.90;4.07;;;10.60;99.90;;;;;;5032895;28;20017;-79
2021/04/24 01:26:10;;;;;;;8.95;3.45;;;10.60;99.90;;;;;;5032528;28;20021;-79
2021/04/24 01:28:38;;;;;;;5.97;3.00;;;10.50;99.90;;;;;;5033211;28;20060;-80
2021/04/24 01:31:04;;;;;;;6.50;3.42;;;10.60;99.70;;;;;;5032026;28;20021;-80
2021/04/24 01:33:36;;;;;;;6.70;3.42;;;10.60;99.90;;;;;;5032998;28;20132;-81
2021/04/24 01:36:04;;;;;;;6.13;2.80;;;10.60;99.90;;;;;;5012578;28;20025;-79
2021/04/24 01:38:31;;;;;;;5.97;3.47;;;10.60;99.90;;;;;;5039436;28;20024;-79
2021/04/24 01:40:57;;;;;;;;;;;10.60;99.90;;;;;;5038792;28;20026;-79
2021/04/24 01:43:26;;;;;;;10.57;3.45;;;10.60;99.90;;;;;;5053413;28;20394;-79
2021/04/24 01:45:52;;;;;;;5.43;3.15;;;10.60;99.40;;;;;;5038363;28;20056;-79
2021/04/24 01:48:18;;;;;;;9.18;3.45;;;10.60;99.90;;;;;;5034946;28;20021;-78
2021/04/24 01:50:46;;;;;;;6.75;3.40;;;10.70;99.70;;;;;;5035286;28;20115;-79
2021/04/24 01:53:18;;;;;;;5.60;3.33;;;10.60;99.40;;;;;;5051636;28;20043;-79
2021/04/24 01:55:45;;;;;;;6.22;3.17;;;10.60;99.50;;;;;;5037588;28;20021;-79
2021/04/24 01:58:17;;;;;;;5.63;3.40;;;10.60;98.80;;;;;;5037442;28;20087;-79
2021/04/24 02:00:50;;;;;;;5.05;3.25;;;10.60;98.70;;;;;;5038889;28;20120;-79
2021/04/24 02:03:16;;;;;;;9.80;3.78;;;10.60;98.80;;;;;;5038999;28;20112;-79
2021/04/24 02:05:44;;;;;;;6.47;3.35;;;10.60;98.80;;;;;;5038565;28;20399;-79
2021/04/24 02:08:11;;;;;;;10.15;3.88;;;10.50;98.90;;;;;;5037531;28;20032;-76
2021/04/24 02:10:39;;;;;;;4.80;2.80;;;10.50;99.00;;;;;;5037599;28;20025;-77
2021/04/24 02:13:11;;;;;;;6.82;3.15;;;10.40;99.00;;;;;;5035411;28;20426;-78
2021/04/24 02:15:37;;;;;;;12.10;4.05;;;10.30;99.80;;;;;;5048582;28;20393;-78
2021/04/24 02:18:04;;;;;;;4.32;2.97;;;10.30;99.30;;;;;;5039054;28;20030;-77
2021/04/24 02:20:30;;;;;;;10.50;3.58;;;10.30;98.70;;;;;;5058151;28;20029;-77
2021/04/24 02:22:56;;;;;;;5.68;3.45;;;10.30;98.60;;;;;;5035083;28;20040;-78
2021/04/24 02:25:22;;;;;;;7.13;2.97;;;10.40;98.60;;;;;;5038488;28;20102;-79
2021/04/24 02:27:49;;;;;;;6.68;3.40;;;10.40;98.40;;;;;;5036095;28;20061;-78
2021/04/24 02:30:17;;;;;;;7.85;3.70;;;10.50;97.90;;;;;;5039890;28;20032;-78
2021/04/24 02:32:43;;;;;;;9.63;3.30;;;10.50;97.30;;;;;;5049416;28;20040;-78
2021/04/24 02:35:11;;;;;;;6.27;3.43;;;10.50;97.00;;;;;;5045720;28;20035;-79
2021/04/24 02:37:37;;;;;;;6.07;3.03;;;10.40;97.60;;;;;;5056924;28;20123;-79
2021/04/24 02:40:06;;;;;;;5.32;3.38;;;10.50;97.10;;;;;;5031773;28;20021;-77
2021/04/24 02:42:32;;;;;;;6.82;3.17;;;10.60;96.70;;;;;;5031424;28;20046;-78
2021/04/24 02:45:05;;;;;;;7.85;3.20;;;10.60;96.40;;;;;;5032088;28;20030;-79
2021/04/24 02:47:32;;;;;;;6.40;3.45;;;10.70;96.10;;;;;;5031531;28;20047;-79
2021/04/24 02:49:58;;;;;;;8.02;4.05;;;10.60;96.50;;;;;;5030475;28;20380;-79
2021/04/24 02:52:24;;;;;;;6.63;3.25;;;10.50;96.20;;;;;;5031348;28;20025;-79
2021/04/24 02:54:49;;;;;;;8.32;3.08;;;10.50;96.40;;;;;;5031576;28;20032;-79
2021/04/24 02:57:15;;;;;;;8.57;3.17;;;10.50;96.10;;;;;;5031534;28;20104;-79
2021/04/24 02:59:41;;;;;;;6.38;3.42;;;10.50;96.40;;;;;;5042401;28;20223;-79
2021/04/24 03:02:06;;;;;;;5.80;3.08;;;10.40;96.30;;;;;;5032352;28;20083;-79
2021/04/24 03:04:32;;;;;;;13.80;3.38;;;10.40;95.70;;;;;;5031432;28;20022;-79
2021/04/24 03:06:58;;;;;;;5.50;3.55;;;10.40;95.70;;;;;;5030827;28;20407;-80
2021/04/24 03:09:24;;;;;;;8.57;3.00;;;10.40;96.00;;;;;;5031611;28;20056;-79
2021/04/24 03:11:49;;;;;;;7.50;3.15;;;10.50;96.10;;;;;;5030381;28;20025;-79
2021/04/24 03:14:15;;;;;;;12.32;3.53;;;10.40;95.70;;;;;;5029617;28;20132;-79
2021/04/24 03:16:41;;;;;;;7.55;3.60;;;10.50;95.20;;;;;;5030704;28;20071;-79
2021/04/24 03:19:08;;;;;;;15.45;3.28;;;10.50;95.40;;;;;;5031171;28;20120;-79
2021/04/24 03:21:37;;;;;;;5.20;3.22;;;10.50;94.40;;;;;;5045933;28;20431;-79
2021/04/24 03:24:04;;;;;;;7.45;3.20;;;10.60;94.00;;;;;;5022299;28;20500;-79
2021/04/24 03:26:29;;;;;;;;;;;10.60;93.90;;;;;;5030985;28;20026;-80
2021/04/24 03:28:55;;;;;;;6.43;2.97;;;10.50;94.50;;;;;;5040497;28;19928;-78
2021/04/24 03:31:21;;;;;;;19.95;3.75;;;10.50;94.20;;;;;;5043763;28;20100;-78
2021/04/24 03:33:47;;;;;;;7.93;3.20;;;10.50;94.00;;;;;;5030407;28;20108;-78
2021/04/24 03:36:13;;;;;;;8.52;4.03;;;10.50;94.50;;;;;;5030520;28;20032;-78
2021/04/24 03:38:38;;;;;;;8.07;2.97;;;10.50;94.50;;;;;;5037540;28;20417;-79
2021/04/24 03:41:05;;;;;;;9.07;3.25;;;10.40;94.60;;;;;;5030196;28;20365;-78
2021/04/24 03:43:31;;;;;;;9.20;3.50;;;10.30;94.30;;;;;;5030251;28;20029;-79
2021/04/24 03:45:57;;;;;;;6.53;3.08;;;10.20;94.80;;;;;;5045292;28;20606;-79
2021/04/24 03:48:23;;;;;;;10.57;3.55;;;10.00;94.80;;;;;;5029820;28;20124;-79
2021/04/24 03:50:49;;;;;;;9.27;3.30;;;10.00;95.20;;;;;;5030463;28;20392;-79
2021/04/24 03:53:15;;;;;;;9.02;2.78;;;10.10;94.40;;;;;;5030750;28;20165;-79
2021/04/24 03:55:41;;;;;;;9.02;3.67;;;10.20;94.60;;;;;;5030448;28;20084;-79
2021/04/24 03:58:06;;;;;;;9.15;3.40;;;10.30;95.30;;;;;;5030368;28;20033;-79
2021/04/24 04:00:32;;;;;;;9.45;3.65;;;10.30;94.80;;;;;;5030435;28;20046;-79
2021/04/24 04:03:06;;;;;;;6.85;3.40;;;10.40;94.90;;;;;;5030332;28;20060;-79
2021/04/24 04:05:35;;;;;;;6.85;3.50;;;10.40;94.20;;;;;;5028976;28;20049;-78
2021/04/24 04:08:02;;;;;;;11.65;3.40;;;10.50;93.80;;;;;;5030167;28;20041;-79
2021/04/24 04:10:28;;;;;;;9.75;3.10;;;10.40;93.40;;;;;;5029357;28;20034;-78
2021/04/24 04:12:55;;;;;;;11.43;3.30;;;10.50;93.50;;;;;;5029799;28;20041;-79
2021/04/24 04:15:24;;;;;;;10.13;3.67;;;10.40;93.70;;;;;;5030544;28;20033;-78
2021/04/24 04:17:57;;;;;;;7.47;3.78;;;10.40;93.30;;;;;;5028941;28;20133;-79
2021/04/24 04:20:26;;;;;;;12.10;3.17;;;10.40;93.40;;;;;;5030594;28;20025;-79
2021/04/24 04:22:54;;;;;;;7.95;3.38;;;10.50;92.90;;;;;;5030009;28;20021;-78
2021/04/24 04:25:23;;;;;;;8.23;3.00;;;10.60;92.30;;;;;;5030402;28;20033;-79
2021/04/24 04:27:49;;;;;;;7.47;3.17;;;10.70;92.80;;;;;;5030100;28;20033;-79
2021/04/24 04:30:17;;;;;;;10.30;3.58;;;10.70;92.70;;;;;;5029353;28;20026;-79
2021/04/24 04:32:43;;;;;;;7.93;3.63;;;10.70;92.50;;;;;;5029248;28;20041;-80
2021/04/24 04:35:11;;;;;;;9.23;4.30;;;10.70;92.70;;;;;;5029043;28;20069;-79
2021/04/24 04:37:37;;;;;;;8.35;3.63;;;10.80;93.10;;;;;;5030358;28;20038;-78
2021/04/24 04:40:05;;;;;;;6.43;3.20;;;10.80;92.90;;;;;;5030526;28;20040;-80
2021/04/24 04:42:30;;;;;;;8.10;3.30;;;10.80;92.90;;;;;;5029714;28;20049;-79
2021/04/24 04:44:56;;;;;;;8.10;3.10;;;10.80;92.20;;;;;;5030231;28;20074;-80
2021/04/24 04:47:22;;;;;;;8.32;3.08;;;10.80;92.60;;;;;;5030050;28;20053;-77
2021/04/24 04:49:48;;;;;;;10.18;3.28;;;10.80;92.30;;;;;;5030785;28;20022;-79
2021/04/24 04:52:13;;;;;;;6.50;2.90;;;10.80;94.50;;;;;;5029768;28;20029;-79
2021/04/24 04:54:40;;;;;;;9.00;3.80;;;10.90;93.50;;;;;;5030175;28;20559;-81
2021/04/24 04:57:06;;;;;;;10.07;3.78;;;10.80;93.70;;;;;;5029730;28;20026;-80
2021/04/24 04:59:31;;;;;;;7.57;3.17;;;10.80;93.90;;;;;;5032797;28;20395;-80
2021/04/24 05:01:57;;;;;;;7.72;3.53;;;10.80;93.20;;;;;;5033059;28;20032;-81
2021/04/24 05:04:23;;;;;;;7.72;3.38;;;10.90;93.20;;;;;;5033995;28;20028;-81
2021/04/24 05:06:52;;;;;;;7.47;3.10;;;10.90;93.20;;;;;;5033468;28;20037;-80
2021/04/24 05:09:22;;;;;;;8.88;3.15;;;10.90;93.40;;;;;;5034014;28;20017;-82
2021/04/24 05:11:51;;;;;;;35.22;3.75;;;10.90;93.70;;;;;;5033177;28;20337;-80
2021/04/24 05:14:17;;;;;;;7.95;3.42;;;11.00;93.20;;;;;;5033809;28;20029;-79
2021/04/24 05:16:44;;;;;;;8.48;3.42;;;11.10;93.40;;;;;;5032910;28;20401;-78
2021/04/24 05:19:10;;;;;;;12.98;3.40;;;11.30;93.50;;;;;;5032469;28;20079;-79
2021/04/24 05:21:36;;;;;;;10.98;3.13;;;11.50;91.30;;;;;;5032896;28;20264;-79
2021/04/24 05:24:03;;;;;;;8.93;3.42;;;11.70;91.80;;;;;;5033582;28;20033;-80
2021/04/24 05:26:29;;;;;;;9.82;2.83;;;11.70;91.90;;;;;;5033481;28;20049;-79
2021/04/24 05:28:55;;;;;;;9.40;3.35;;;11.80;91.70;;;;;;5033793;28;20628;-80
2021/04/24 05:31:21;;;;;;;15.57;3.13;;;11.80;91.50;;;;;;5048151;28;20025;-79
2021/04/24 05:33:46;;;;;;;10.25;3.45;;;11.90;91.70;;;;;;5033164;28;20029;-79
2021/04/24 05:36:15;;;;;;;10.00;3.63;;;12.10;90.60;;;;;;5032880;28;20018;-80
2021/04/24 05:38:40;;;;;;;8.82;3.70;;;12.20;90.80;;;;;;5033232;28;20025;-80
2021/04/24 05:41:09;;;;;;;9.48;3.35;;;12.30;91.70;;;;;;5032617;28;20051;-79
2021/04/24 05:43:35;;;;;;;12.55;3.60;;;12.40;90.80;;;;;;5032923;28;20467;-81
2021/04/24 05:46:01;;;;;;;10.43;3.25;;;12.50;88.50;;;;;;5032591;28;20022;-79
2021/04/24 05:48:27;;;;;;;8.55;3.40;;;12.60;87.30;;;;;;5031637;28;20144;-82
2021/04/24 05:50:53;;;;;;;6.60;3.53;;;12.80;87.90;;;;;;5030211;28;20029;-79
2021/04/24 05:53:18;;;;;;;7.72;2.83;;;12.80;88.50;;;;;;5030651;28;20049;-80
2021/04/24 05:55:47;;;;;;;9.85;3.25;;;12.90;90.30;;;;;;5030151;28;20369;-80
2021/04/24 05:58:13;;;;;;;13.55;3.33;;;12.80;87.50;;;;;;5028485;28;20033;-80
2021/04/24 06:00:38;;;;;;;7.95;3.28;;;12.80;90.00;;;;;;5028308;28;20112;-80
2021/04/24 06:03:04;;;;;;;8.95;3.60;;;12.80;89.30;;;;;;5029554;28;20091;-79
2021/04/24 06:05:30;;;;;;;14.25;3.13;;;12.90;88.50;;;;;;5030204;28;20037;-79
2021/04/24 06:07:56;;;;;;;8.30;3.20;;;13.10;86.30;;;;;;5029658;28;20646;-79
2021/04/24 06:10:24;;;;;;;6.80;3.38;;;13.20;85.80;;;;;;5027806;28;20064;-78
2021/04/24 06:12:50;;;;;;;7.38;3.20;;;13.40;87.30;;;;;;5029214;28;20034;-78
2021/04/24 06:15:18;;;;;;;8.85;3.35;;;13.50;85.90;;;;;;5029822;28;20034;-79
2021/04/24 06:17:43;;;;;;;9.18;3.25;;;13.50;83.50;;;;;;5029029;28;20022;-80
2021/04/24 06:20:11;;;;;;;8.05;2.95;;;13.60;85.00;;;;;;5045524;28;20036;-80
2021/04/24 06:22:38;;;;;;;12.15;3.40;;;13.70;83.80;;;;;;5045555;28;20026;-78
2021/04/24 06:25:06;;;;;;;10.40;3.58;;;13.70;84.20;;;;;;5031884;28;20570;-79
2021/04/24 06:27:31;;;;;;;7.93;2.88;;;13.80;84.40;;;;;;5030034;28;20071;-80
2021/04/24 06:29:57;;;;;;;8.63;3.13;;;14.00;84.70;;;;;;5047070;28;20030;-79
2021/04/24 06:32:25;;;;;;;9.25;3.05;;;14.10;82.20;;;;;;5052614;28;20025;-79
2021/04/24 06:34:51;;;;;;;9.70;3.65;;;14.10;81.70;;;;;;5037844;28;20084;-80
2021/04/24 06:37:17;;;;;;;7.95;3.20;;;14.20;81.60;;;;;;5033976;28;20389;-79
2021/04/24 06:39:43;;;;;;;8.57;3.00;;;14.30;79.30;;;;;;5053584;28;20028;-79
2021/04/24 06:42:09;;;;;;;8.45;2.95;;;14.40;81.00;;;;;;5049309;28;20041;-80
2021/04/24 06:44:34;;;;;;;11.73;3.80;;;14.40;82.80;;;;;;5040314;28;20029;-80
2021/04/24 06:47:00;;;;;;;12.27;3.22;;;14.50;80.60;;;;;;5032061;28;20029;-80
2021/04/24 06:49:26;;;;;;;11.40;3.25;;;14.60;81.60;;;;;;5032279;28;20584;-82
2021/04/24 06:51:51;;;;;;;7.88;3.55;;;14.70;77.00;;;;;;5031604;28;20450;-79
2021/04/24 06:54:17;;;;;;;7.75;3.33;;;14.80;80.00;;;;;;5031758;28;20075;-78
2021/04/24 06:56:44;;;;;;;14.98;3.95;;;14.90;78.50;;;;;;5030093;28;20464;-78
2021/04/24 06:59:09;;;;;;;8.38;3.38;;;15.00;79.90;;;;;;5031811;28;20080;-80
2021/04/24 07:01:35;;;;;;;9.25;3.95;;;15.10;75.30;;;;;;5030864;28;20025;-79
2021/04/24 07:04:01;;;;;;;10.05;3.28;;;15.20;77.40;;;;;;5023328;28;20043;-80
2021/04/24 07:06:27;;;;;;;11.85;3.95;;;15.20;77.40;;;;;;5029968;28;20040;-81
2021/04/24 07:08:53;;;;;;;12.18;3.58;;;15.30;77.40;;;;;;5047458;28;20033;-80
2021/04/24 07:11:18;;;;;;;9.15;3.25;;;15.40;76.20;;;;;;5046419;28;20404;-79
2021/04/24 07:13:44;;;;;;;8.13;3.22;;;15.40;76.10;;;;;;5031472;28;20045;-81
2021/04/24 07:16:13;;;;;;;12.25;3.60;;;15.60;78.10;;;;;;5029699;28;20036;-80
2021/04/24 07:18:45;;;;;;;10.95;3.42;;;15.60;74.60;;;;;;5031419;28;20018;-79
2021/04/24 07:21:11;;;;;;;7.10;2.72;;;15.70;75.80;;;;;;5030694;28;20033;-82
2021/04/24 07:23:40;;;;;;;7.80;3.33;;;15.80;72.50;;;;;;5031467;28;20067;-80
2021/04/24 07:26:08;;;;;;;8.13;2.95;;;15.80;72.30;;;;;;5031113;28;20029;-79
2021/04/24 07:28:33;;;;;;;8.80;3.08;;;15.90;74.40;;;;;;5031388;28;20026;-80
2021/04/24 07:30:59;;;;;;;7.10;2.60;;;16.00;73.70;;;;;;5030785;28;20168;-82
2021/04/24 07:33:28;;;;;;;13.80;3.05;;;16.00;72.00;;;;;;5029936;28;20260;-79
2021/04/24 07:35:54;;;;;;;13.30;4.03;;;16.10;72.10;;;;;;5030562;28;20112;-79
2021/04/24 07:38:21;;;;;;;10.73;3.43;;;16.20;71.30;;;;;;5031214;28;20025;-80
2021/04/24 07:40:47;;;;;;;10.50;3.05;;;16.20;72.10;;;;;;5030785;28;20025;-79
2021/04/24 07:43:13;;;;;;;7.13;3.03;;;16.30;70.60;;;;;;5030596;28;20048;-79
2021/04/24 07:45:40;;;;;;;10.55;3.50;;;16.40;71.50;;;;;;5031424;28;20034;-81
2021/04/24 07:48:10;;;;;;;7.63;3.15;;;16.50;71.70;;;;;;5029850;28;20021;-78
2021/04/24 07:50:36;;;;;;;7.95;2.95;;;16.50;70.60;;;;;;5031114;28;20025;-81
2021/04/24 07:53:03;;;;;;;8.18;2.80;;;16.60;69.60;;;;;;5034108;28;20068;-79
2021/04/24 07:55:28;;;;;;;8.43;2.75;;;16.70;70.70;;;;;;5031703;28;20037;-81
2021/04/24 07:57:54;;;;;;;15.10;3.60;;;16.80;70.20;;;;;;5029995;28;20075;-78
2021/04/24 08:00:24;;;;;;;5.15;2.50;;;16.80;63.70;;;;;;5031134;28;20451;-86
2021/04/24 08:02:50;;;;;;;6.47;2.83;;;16.90;68.20;;;;;;5032757;28;20053;-85
2021/04/24 08:05:17;;;;;;;16.15;2.90;;;16.90;66.30;;;;;;5032546;28;20076;-81
2021/04/24 08:07:44;;;;;;;11.52;2.42;;;17.00;67.70;;;;;;5031416;28;20030;-82
2021/04/24 08:10:10;;;;;;;5.18;2.85;;;17.00;62.40;;;;;;5030968;28;20373;-79
2021/04/24 08:12:36;;;;;;;12.00;3.55;;;17.10;67.90;;;;;;5030640;28;20121;-81
2021/04/24 08:15:03;;;;;;;8.40;2.60;;;17.20;66.40;;;;;;5031038;28;20120;-80
2021/04/24 08:17:29;;;;;;;;;;;17.30;65.50;;;;;;5030442;28;20029;-79
2021/04/24 08:19:55;;;;;;;161.98;11.10;;;17.40;64.70;;;;;;5045731;28;19905;-79
2021/04/24 08:22:20;;;;;;;90.90;7.53;;;17.50;62.20;;;;;;5030060;28;20055;-78
2021/04/24 08:24:46;;;;;;;15.07;2.90;;;17.60;61.00;;;;;;5030267;28;20026;-77
2021/04/24 08:27:11;;;;;;;13.63;3.17;;;17.60;62.50;;;;;;5030089;28;20037;-78
2021/04/24 08:29:37;;;;;;;11.60;2.75;;;17.70;65.60;;;;;;5029456;28;20025;-79
2021/04/24 08:32:04;;;;;;;28.80;4.10;;;17.70;54.60;;;;;;5027318;28;20705;-78
2021/04/24 08:34:31;;;;;;;7.32;2.30;;;17.70;57.30;;;;;;5030935;28;20025;-79
2021/04/24 08:36:56;;;;;;;10.20;2.97;;;17.70;52.80;;;;;;5032658;28;20041;-80
2021/04/24 08:39:22;;;;;;;9.27;2.55;;;17.80;52.20;;;;;;5034137;28;20021;-78
2021/04/24 08:41:48;;;;;;;9.85;3.90;;;17.80;53.80;;;;;;5033794;28;20040;-78
2021/04/24 08:44:16;;;;;;;19.00;4.68;;;17.90;59.00;;;;;;5034114;28;20495;-78
2021/04/24 08:46:44;;;;;;;7.60;3.25;;;17.90;61.60;;;;;;5033705;28;20091;-77
2021/04/24 08:49:14;;;;;;;15.98;3.47;;;18.00;59.00;;;;;;5034050;28;20022;-79
2021/04/24 08:51:40;;;;;;;13.98;3.08;;;17.80;62.50;;;;;;5033748;28;20092;-79
2021/04/24 08:54:06;;;;;;;10.68;3.30;;;17.50;59.50;;;;;;5032536;28;20034;-78
2021/04/24 08:56:31;;;;;;;13.40;3.70;;;17.30;59.60;;;;;;5033768;28;20048;-78
2021/04/24 08:58:58;;;;;;;14.63;3.50;;;17.40;59.50;;;;;;5033851;28;20053;-79
2021/04/24 09:01:25;;;;;;;8.38;2.97;;;17.50;60.90;;;;;;5032037;28;20040;-78
2021/04/24 09:03:51;;;;;;;6.20;3.25;;;17.60;63.60;;;;;;5032669;28;20116;-78
2021/04/24 09:06:21;;;;;;;7.85;3.67;;;17.80;60.50;;;;;;5033317;28;20113;-79
2021/04/24 09:09:00;;;;;;;10.73;3.67;;;17.70;61.70;;;;;;5048960;28;20439;-78
2021/04/24 09:11:26;;;;;;;10.90;3.22;;;17.70;61.00;;;;;;5033361;28;20223;-79
2021/04/24 09:14:07;;;;;;;7.18;3.65;;;17.50;59.40;;;;;;5033740;28;20041;-78
2021/04/24 09:16:34;;;;;;;8.80;3.88;;;17.60;58.60;;;;;;5032966;28;20112;-78
2021/04/24 09:19:00;;;;;;;11.50;3.40;;;17.70;59.90;;;;;;5033717;28;20024;-79
2021/04/24 09:21:28;;;;;;;9.53;3.47;;;17.80;60.00;;;;;;5033238;28;20047;-78
2021/04/24 09:23:54;;;;;;;12.38;4.35;;;17.60;56.30;;;;;;5033692;28;20095;-78
2021/04/24 09:26:24;;;;;;;18.88;4.38;;;17.50;59.60;;;;;;5033275;28;20480;-77
2021/04/24 09:29:02;;;;;;;13.70;3.65;;;17.60;58.00;;;;;;5033770;28;20112;-78
2021/04/24 09:31:29;;;;;;;9.15;3.35;;;17.50;59.20;;;;;;5032676;28;20026;-78
2021/04/24 09:33:57;;;;;;;5.78;3.38;;;17.50;60.30;;;;;;5033239;28;20033;-78
2021/04/24 09:36:31;;;;;;;7.45;2.80;;;17.50;60.40;;;;;;5033217;28;20028;-78
2021/04/24 09:39:01;;;;;;;10.50;3.50;;;17.50;59.80;;;;;;5033355;28;20025;-80
2021/04/24 09:41:31;;;;;;;7.47;3.45;;;17.60;55.80;;;;;;5032997;28;20067;-77
2021/04/24 09:44:14;;;;;;;6.55;2.50;;;17.60;59.40;;;;;;5032921;28;20039;-78
2021/04/24 09:46:45;;;;;;;5.93;3.20;;;17.70;55.60;;;;;;5031486;28;20484;-79
2021/04/24 09:49:31;;;;;;;13.32;3.83;;;17.70;56.30;;;;;;5033325;28;20654;-78
2021/04/24 09:51:59;;;;;;;10.90;4.07;;;17.90;53.70;;;;;;5032776;28;20025;-78
2021/04/24 09:54:42;;;;;;;11.02;2.83;;;17.70;54.70;;;;;;5032914;28;20037;-79
2021/04/24 09:57:08;;;;;;;11.60;3.22;;;17.70;55.70;;;;;;5032826;28;20028;-78
2021/04/24 09:59:54;;;;;;;11.27;3.83;;;17.90;59.00;;;;;;5033882;28;20018;-79
2021/04/24 10:02:45;;;;;;;8.15;3.38;;;17.80;58.10;;;;;;5032699;28;20029;-77
2021/04/24 10:05:16;;;;;;;11.05;3.60;;;17.60;63.60;;;;;;5013228;28;20037;-78
2021/04/24 10:07:45;;;;;;;10.13;3.78;;;17.40;65.50;;;;;;5033064;28;20025;-80
2021/04/24 10:10:13;;;;;;;15.88;4.05;;;17.40;65.50;;;;;;5043563;28;20032;-79
2021/04/24 10:12:40;;;;;;;12.05;3.95;;;17.40;66.20;;;;;;5040025;28;20033;-79
2021/04/24 10:15:07;;;;;;;11.50;3.67;;;17.20;64.20;;;;;;5033729;28;20033;-83
2021/04/24 10:17:33;;;;;;;9.68;4.00;;;17.20;65.30;;;;;;5032171;28;20026;-78
2021/04/24 10:20:01;;;;;;;8.40;3.22;;;17.00;62.30;;;;;;5032947;28;20029;-79
2021/04/24 10:22:28;;;;;;;8.18;3.85;;;16.90;63.80;;;;;;5032090;28;20047;-77
2021/04/24 10:24:54;;;;;;;8.48;3.80;;;16.80;72.30;;;;;;5033128;28;20064;-78
2021/04/24 10:27:21;;;;;;;10.75;3.50;;;17.00;73.30;;;;;;5032263;28;20059;-78
2021/04/24 10:29:49;;;;;;;12.43;3.70;;;17.00;68.90;;;;;;5032652;28;20036;-79
2021/04/24 10:32:16;;;;;;;7.50;3.42;;;17.00;69.00;;;;;;5032194;28;20120;-78
2021/04/24 10:34:42;;;;;;;9.45;4.15;;;17.10;70.60;;;;;;5035077;28;20090;-78
2021/04/24 10:37:09;;;;;;;6.47;3.45;;;17.00;72.30;;;;;;5033373;28;20033;-77
2021/04/24 10:39:37;;;;;;;7.05;2.97;;;17.10;76.80;;;;;;5034644;28;20029;-78
2021/04/24 10:42:09;;;;;;;6.72;3.05;;;17.20;76.10;;;;;;5034916;28;20073;-77
2021/04/24 10:44:52;;;;;;;8.75;3.60;;;17.10;72.20;;;;;;5036640;28;20025;-78
2021/04/24 10:47:44;;;;;;;6.25;3.47;;;16.90;76.80;;;;;;5044659;28;20104;-76
2021/04/24 10:50:17;;;;;;;7.30;2.80;;;16.90;73.10;;;;;;5023102;28;20033;-77
2021/04/24 10:52:45;;;;;;;10.30;3.53;;;16.80;72.50;;;;;;5034091;28;20029;-78
2021/04/24 10:55:16;;;;;;;9.93;3.08;;;17.00;78.50;;;;;;5040420;28;20069;-79
2021/04/24 10:57:42;;;;;;;14.98;3.60;;;17.10;72.00;;;;;;5044004;28;20025;-79
2021/04/24 11:00:11;;;;;;;7.45;3.50;;;17.00;69.70;;;;;;5042442;28;20442;-77
2021/04/24 11:02:45;;;;;;;7.00;3.03;;;17.10;68.20;;;;;;5031999;28;20030;-77
2021/04/24 11:05:32;;;;;;;8.00;3.60;;;17.10;67.30;;;;;;5032020;28;20067;-77
2021/04/24 11:08:20;;;;;;;7.50;3.00;;;17.10;73.00;;;;;;5031685;28;20052;-77
2021/04/24 11:10:55;;;;;;;10.80;3.25;;;17.40;66.60;;;;;;5031107;28;20026;-77
2021/04/24 11:13:22;;;;;;;7.60;3.42;;;17.50;66.10;;;;;;5030323;28;20029;-76
2021/04/24 11:15:47;;;;;;;;;;;17.40;66.40;;;;;;5030196;28;20087;-76
2021/04/24 11:18:14;;;;;;;12.13;3.25;;;17.30;64.50;;;;;;5031216;28;19904;-78
2021/04/24 11:20:55;;;;;;;8.10;2.85;;;17.20;68.30;;;;;;5030823;28;20025;-78
2021/04/24 11:23:32;;;;;;;7.78;2.72;;;17.30;70.40;;;;;;5030217;28;20041;-77
2021/04/24 11:26:02;;;;;;;;;;;17.30;67.00;;;;;;5031281;28;20496;-78
2021/04/24 11:28:28;;;;;;;4.78;2.50;;;17.20;73.00;;;;;;5031297;28;19905;-83
2021/04/24 11:30:55;;;;;;;7.63;3.08;;;17.40;71.00;;;;;;5031174;28;20507;-81
2021/04/24 11:33:41;;;;;;;6.37;3.10;;;17.50;71.60;;;;;;5031068;28;20036;-81
2021/04/24 11:36:26;;;;;;;12.10;3.17;;;17.50;75.20;;;;;;5030651;28;20045;-79
2021/04/24 11:38:55;;;;;;;7.05;2.95;;;17.50;74.40;;;;;;5031081;28;20028;-78
2021/04/24 11:41:32;;;;;;;5.65;2.72;;;17.70;76.30;;;;;;5030262;28;20403;-77
2021/04/24 11:43:58;;;;;;;6.07;2.83;;;17.80;73.30;;;;;;5030813;28;20286;-77
2021/04/24 11:46:35;;;;;;;4.65;2.63;;;17.80;78.10;;;;;;5030287;28;20112;-78
2021/04/24 11:49:10;;;;;;;5.05;2.55;;;17.80;77.50;;;;;;5022177;28;20433;-78
2021/04/24 11:52:13;;;;;;;4.38;2.53;;;17.50;77.60;;;;;;5030263;28;20123;-77
2021/04/24 11:54:42;;;;;;;4.18;2.30;;;17.20;79.70;;;;;;5029481;28;20560;-78
2021/04/24 11:57:20;;;;;;;4.63;2.40;;;17.50;78.60;;;;;;5030260;28;20021;-79
2021/04/24 11:59:47;;;;;;;;;;;17.50;76.10;;;;;;5031214;28;20053;-78
2021/04/24 12:02:21;;;;;;;;;;;17.50;77.70;;;;;;5030549;28;19913;-77
2021/04/24 12:04:49;;;;;;;;;;;17.70;80.00;;;;;;5031229;28;20527;-77
2021/04/24 12:07:16;;;;;;;;;;;18.00;84.30;;;;;;5030711;28;20412;-77
2021/04/24 12:09:45;;;;;;;;;;;19.10;77.00;;;;;;5029123;28;19913;-78
2021/04/24 12:12:11;;;;;;;;;;;21.00;73.50;;;;;;5030748;28;19905;-78
2021/04/24 12:14:36;;;;;;;;;;;22.10;68.50;;;;;;5030808;28;20298;-80
2021/04/24 12:17:06;;;;;;;;;;;23.00;61.30;;;;;;5030301;28;19912;-76
2021/04/24 12:19:33;;;;;;;;;;;23.20;54.30;;;;;;5030984;28;19909;-80
2021/04/24 12:21:59;;;;;;;;;;;23.00;52.20;;;;;;5030607;28;19928;-80
2021/04/24 12:24:24;;;;;;;;;;;23.60;52.70;;;;;;5030804;28;20358;-78
2021/04/24 12:26:50;;;;;;;;;;;25.40;54.20;;;;;;5030557;28;20331;-79
2021/04/24 12:29:15;;;;;;;;;;;25.60;51.10;;;;;;5030899;28;19932;-76
2021/04/24 12:31:41;;;;;;;;;;;25.60;53.40;;;;;;5029321;28;19955;-77
2021/04/24 12:34:07;;;;;;;;;;;26.00;52.00;;;;;;5030751;28;19951;-78
2021/04/24 12:36:39;;;;;;;;;;;25.90;52.20;;;;;;5030554;28;20043;-77
2021/04/24 12:39:14;;;;;;;;;;;24.20;58.40;;;;;;5022771;28;19962;-79
2021/04/24 12:41:46;;;;;;;;;;;24.10;59.40;;;;;;5030303;28;19923;-76
2021/04/24 12:44:25;;;;;;;;;;;23.90;59.30;;;;;;5031141;28;19963;-78
2021/04/24 12:46:50;;;;;;;;;;;23.70;58.70;;;;;;5045494;28;19912;-78
2021/04/24 12:49:16;;;;;;;;;;;24.60;58.10;;;;;;5046006;28;19912;-79
2021/04/24 12:51:56;;;;;;;;;;;25.60;54.90;;;;;;5030338;28;19909;-77
2021/04/24 12:54:22;;;;;;;;;;;25.50;55.70;;;;;;5030683;28;20059;-76
2021/04/24 12:56:47;;;;;;;;;;;24.60;55.50;;;;;;5030178;28;20000;-77